sensor_id;sensor_type;location;lat;lon;timestamp;P1;durP1;ratioP1;P2;durP2;ratioP2
68655;SDS011;55638;51.122;13.606;2022-12-18T10:14:00;51.05;;;25.58;;
68655;SDS011;55638;51.122;13.606;2022-12-18T10:19:50;55.95;;;28.40;;
68655;SDS011;55638;51.122;13.606;2022-12-18T10:21:39;47.63;;;26.20;;
68655;SDS011;55638;51.122;13.606;2022-12-18T10:26:47;51.33;;;27.33;;
68655;SDS011;55638;51.122;13.606;2022-12-18T10:28:19;56.60;;;28.48;;
68655;SDS011;55638;51.122;13.606;2022-12-18T10:29:52;54.53;;;26.98;;
68655;SDS011;55638;51.122;13.606;2022-12-18T10:31:25;53.47;;;27.80;;
68655;SDS011;55638;51.122;13.606;2022-12-18T10:33:00;46.83;;;25.98;;
68655;SDS011;55638;51.122;13.606;2022-12-18T10:34:33;49.72;;;26.88;;
68655;SDS011;55638;51.122;13.606;2022-12-18T10:36:05;50.10;;;26.38;;
68655;SDS011;55638;51.122;13.606;2022-12-18T10:37:37;45.85;;;24.42;;
68655;SDS011;55638;51.122;13.606;2022-12-18T10:39:32;43.15;;;23.02;;
68655;SDS011;55638;51.122;13.606;2022-12-18T10:41:23;44.50;;;22.80;;
68655;SDS011;55638;51.122;13.606;2022-12-18T10:43:03;39.63;;;22.63;;
68655;SDS011;55638;51.122;13.606;2022-12-18T10:44:36;43.53;;;22.17;;
68655;SDS011;55638;51.122;13.606;2022-12-18T10:47:43;38.85;;;22.08;;
68655;SDS011;55638;51.122;13.606;2022-12-18T10:49:18;42.60;;;22.50;;
68655;SDS011;55638;51.122;13.606;2022-12-18T10:50:53;40.75;;;20.83;;
68655;SDS011;55638;51.122;13.606;2022-12-18T10:52:43;39.20;;;21.70;;
68655;SDS011;55638;51.122;13.606;2022-12-18T10:54:25;41.97;;;21.77;;
68655;SDS011;55638;51.122;13.606;2022-12-18T10:56:00;38.42;;;21.60;;
68655;SDS011;55638;51.122;13.606;2022-12-18T10:57:36;38.00;;;21.38;;
68655;SDS011;55638;51.122;13.606;2022-12-18T10:59:11;38.45;;;20.27;;
68655;SDS011;55638;51.122;13.606;2022-12-18T11:00:45;39.08;;;20.17;;
68655;SDS011;55638;51.122;13.606;2022-12-18T11:05:33;36.97;;;19.55;;
68655;SDS011;55638;51.122;13.606;2022-12-18T11:07:08;35.67;;;18.30;;
68655;SDS011;55638;51.122;13.606;2022-12-18T11:08:40;33.60;;;18.23;;
68655;SDS011;55638;51.122;13.606;2022-12-18T11:10:18;34.20;;;18.23;;
68655;SDS011;55638;51.122;13.606;2022-12-18T11:11:58;34.65;;;16.95;;
68655;SDS011;55638;51.122;13.606;2022-12-18T11:13:31;28.17;;;14.38;;
68655;SDS011;55638;51.122;13.606;2022-12-18T11:15:04;33.88;;;17.80;;
68655;SDS011;55638;51.122;13.606;2022-12-18T11:16:42;30.35;;;16.98;;
68655;SDS011;55638;51.122;13.606;2022-12-18T11:18:34;32.42;;;17.45;;
68655;SDS011;55638;51.122;13.606;2022-12-18T11:20:20;31.80;;;18.15;;
68655;SDS011;55638;51.122;13.606;2022-12-18T11:23:52;29.55;;;16.05;;
68655;SDS011;55638;51.122;13.606;2022-12-18T11:25:25;34.13;;;18.02;;
68655;SDS011;55638;51.122;13.606;2022-12-18T11:27:06;34.67;;;18.27;;
68655;SDS011;55638;51.122;13.606;2022-12-18T11:28:52;33.88;;;17.25;;
68655;SDS011;55638;51.122;13.606;2022-12-18T11:30:38;29.27;;;16.65;;
68655;SDS011;55638;51.122;13.606;2022-12-18T11:32:21;31.98;;;18.10;;
68655;SDS011;55638;51.122;13.606;2022-12-18T11:33:59;35.13;;;17.73;;
68655;SDS011;55638;51.122;13.606;2022-12-18T11:35:55;31.02;;;16.92;;
68655;SDS011;55638;51.122;13.606;2022-12-18T11:37:31;30.42;;;17.20;;
68655;SDS011;55638;51.122;13.606;2022-12-18T11:39:08;30.85;;;17.17;;
68655;SDS011;55638;51.122;13.606;2022-12-18T11:42:27;33.30;;;17.65;;
68655;SDS011;55638;51.122;13.606;2022-12-18T11:44:07;32.58;;;17.50;;
68655;SDS011;55638;51.122;13.606;2022-12-18T11:45:45;35.55;;;19.00;;
68655;SDS011;55638;51.122;13.606;2022-12-18T11:49:24;34.85;;;17.88;;
68655;SDS011;55638;51.122;13.606;2022-12-18T11:51:00;34.17;;;17.80;;
68655;SDS011;55638;51.122;13.606;2022-12-18T11:52:38;34.42;;;18.10;;
68655;SDS011;55638;51.122;13.606;2022-12-18T11:54:13;35.88;;;18.38;;
68655;SDS011;55638;51.122;13.606;2022-12-18T12:04:52;31.65;;;17.52;;
68655;SDS011;55638;51.122;13.606;2022-12-18T12:07:12;33.67;;;17.40;;
68655;SDS011;55638;51.122;13.606;2022-12-18T12:08:57;34.55;;;17.73;;
68655;SDS011;55638;51.122;13.606;2022-12-18T12:13:26;33.42;;;17.85;;
68655;SDS011;55638;51.122;13.606;2022-12-18T12:15:22;34.65;;;18.20;;
68655;SDS011;55638;51.122;13.606;2022-12-18T12:19:10;35.28;;;18.48;;
68655;SDS011;55638;51.122;13.606;2022-12-18T12:26:04;33.80;;;17.25;;
68655;SDS011;55638;51.122;13.606;2022-12-18T12:29:35;34.20;;;17.52;;
68655;SDS011;55638;51.122;13.606;2022-12-18T12:38:46;32.33;;;17.02;;
68655;SDS011;55638;51.122;13.606;2022-12-18T12:40:24;30.27;;;17.42;;
68655;SDS011;55638;51.122;13.606;2022-12-18T12:42:33;30.10;;;16.45;;
68655;SDS011;55638;51.122;13.606;2022-12-18T12:44:47;32.28;;;17.65;;
68655;SDS011;55638;51.122;13.606;2022-12-18T12:46:27;34.55;;;16.65;;
68655;SDS011;55638;51.122;13.606;2022-12-18T12:48:06;28.00;;;16.15;;
68655;SDS011;55638;51.122;13.606;2022-12-18T12:49:48;32.20;;;15.88;;
68655;SDS011;55638;51.122;13.606;2022-12-18T12:51:25;32.13;;;16.88;;
68655;SDS011;55638;51.122;13.606;2022-12-18T12:52:59;34.03;;;17.52;;
68655;SDS011;55638;51.122;13.606;2022-12-18T12:54:37;32.58;;;16.77;;
68655;SDS011;55638;51.122;13.606;2022-12-18T12:56:11;31.08;;;16.88;;
68655;SDS011;55638;51.122;13.606;2022-12-18T12:57:48;32.10;;;16.85;;
68655;SDS011;55638;51.122;13.606;2022-12-18T12:59:52;32.67;;;15.52;;
68655;SDS011;55638;51.122;13.606;2022-12-18T13:01:31;32.13;;;16.88;;
68655;SDS011;55638;51.122;13.606;2022-12-18T13:05:18;31.33;;;17.02;;
68655;SDS011;55638;51.122;13.606;2022-12-18T13:07:01;32.10;;;16.10;;
68655;SDS011;55638;51.122;13.606;2022-12-18T13:08:57;30.98;;;15.98;;
68655;SDS011;55638;51.122;13.606;2022-12-18T13:10:41;32.90;;;17.15;;
68655;SDS011;55638;51.122;13.606;2022-12-18T13:12:14;32.80;;;17.25;;
68655;SDS011;55638;51.122;13.606;2022-12-18T13:14:12;34.20;;;17.55;;
68655;SDS011;55638;51.122;13.606;2022-12-18T13:16:05;33.20;;;17.13;;
68655;SDS011;55638;51.122;13.606;2022-12-18T13:17:39;30.63;;;16.00;;
68655;SDS011;55638;51.122;13.606;2022-12-18T13:19:19;32.22;;;16.80;;
68655;SDS011;55638;51.122;13.606;2022-12-18T13:22:46;29.02;;;15.98;;
68655;SDS011;55638;51.122;13.606;2022-12-18T13:24:23;31.10;;;16.08;;
68655;SDS011;55638;51.122;13.606;2022-12-18T13:25:59;28.20;;;15.85;;
68655;SDS011;55638;51.122;13.606;2022-12-18T13:29:41;31.55;;;17.10;;
68655;SDS011;55638;51.122;13.606;2022-12-18T13:35:34;29.45;;;15.90;;
68655;SDS011;55638;51.122;13.606;2022-12-18T13:36:50;28.45;;;15.05;;
68655;SDS011;55638;51.122;13.606;2022-12-18T13:40:06;34.17;;;16.85;;
68655;SDS011;55638;51.122;13.606;2022-12-18T13:46:56;31.90;;;16.90;;
68655;SDS011;55638;51.122;13.606;2022-12-18T13:48:00;33.55;;;16.70;;
68655;SDS011;55638;51.122;13.606;2022-12-18T13:49:39;32.80;;;16.98;;
68655;SDS011;55638;51.122;13.606;2022-12-18T13:51:12;32.40;;;16.35;;
68655;SDS011;55638;51.122;13.606;2022-12-18T13:52:52;34.45;;;16.00;;
68655;SDS011;55638;51.122;13.606;2022-12-18T13:55:55;32.08;;;16.35;;
68655;SDS011;55638;51.122;13.606;2022-12-18T13:57:33;30.80;;;16.50;;
68655;SDS011;55638;51.122;13.606;2022-12-18T14:00:47;28.83;;;15.88;;
68655;SDS011;55638;51.122;13.606;2022-12-18T14:02:24;28.95;;;15.63;;
68655;SDS011;55638;51.122;13.606;2022-12-18T14:06:04;31.52;;;16.23;;
68655;SDS011;55638;51.122;13.606;2022-12-18T14:07:39;34.53;;;17.38;;
68655;SDS011;55638;51.122;13.606;2022-12-18T14:09:24;35.38;;;18.00;;
68655;SDS011;55638;51.122;13.606;2022-12-18T14:11:22;32.35;;;17.38;;
68655;SDS011;55638;51.122;13.606;2022-12-18T14:12:57;31.55;;;15.98;;
68655;SDS011;55638;51.122;13.606;2022-12-18T14:14:37;28.08;;;16.20;;
68655;SDS011;55638;51.122;13.606;2022-12-18T14:16:14;27.65;;;15.13;;
68655;SDS011;55638;51.122;13.606;2022-12-18T14:17:49;30.58;;;16.33;;
68655;SDS011;55638;51.122;13.606;2022-12-18T14:19:22;31.08;;;15.60;;
68655;SDS011;55638;51.122;13.606;2022-12-18T14:20:57;30.75;;;15.95;;
68655;SDS011;55638;51.122;13.606;2022-12-18T14:22:31;28.33;;;15.65;;
68655;SDS011;55638;51.122;13.606;2022-12-18T14:24:12;28.85;;;15.30;;
68655;SDS011;55638;51.122;13.606;2022-12-18T14:25:46;30.95;;;15.80;;
68655;SDS011;55638;51.122;13.606;2022-12-18T14:27:23;28.77;;;15.23;;
68655;SDS011;55638;51.122;13.606;2022-12-18T14:28:57;27.42;;;14.88;;
68655;SDS011;55638;51.122;13.606;2022-12-18T14:30:46;26.90;;;14.02;;
68655;SDS011;55638;51.122;13.606;2022-12-18T14:32:19;26.38;;;14.77;;
68655;SDS011;55638;51.122;13.606;2022-12-18T14:33:52;32.20;;;16.25;;
68655;SDS011;55638;51.122;13.606;2022-12-18T14:35:24;28.38;;;14.10;;
68655;SDS011;55638;51.122;13.606;2022-12-18T14:36:57;25.67;;;13.45;;
68655;SDS011;55638;51.122;13.606;2022-12-18T14:38:40;29.00;;;14.48;;
68655;SDS011;55638;51.122;13.606;2022-12-18T14:40:12;25.88;;;14.27;;
68655;SDS011;55638;51.122;13.606;2022-12-18T14:41:45;26.67;;;14.80;;
68655;SDS011;55638;51.122;13.606;2022-12-18T14:43:16;26.17;;;14.32;;
68655;SDS011;55638;51.122;13.606;2022-12-18T14:44:49;24.33;;;13.35;;
68655;SDS011;55638;51.122;13.606;2022-12-18T14:46:46;27.17;;;13.57;;
68655;SDS011;55638;51.122;13.606;2022-12-18T14:48:32;25.98;;;13.35;;
68655;SDS011;55638;51.122;13.606;2022-12-18T14:50:12;25.95;;;13.85;;
68655;SDS011;55638;51.122;13.606;2022-12-18T14:51:49;28.25;;;13.80;;
68655;SDS011;55638;51.122;13.606;2022-12-18T14:53:28;26.88;;;14.10;;
68655;SDS011;55638;51.122;13.606;2022-12-18T14:56:46;26.17;;;13.48;;
68655;SDS011;55638;51.122;13.606;2022-12-18T14:58:21;24.30;;;13.45;;
68655;SDS011;55638;51.122;13.606;2022-12-18T14:59:55;25.88;;;13.75;;
68655;SDS011;55638;51.122;13.606;2022-12-18T15:01:37;26.02;;;14.23;;
68655;SDS011;55638;51.122;13.606;2022-12-18T15:03:12;30.80;;;14.45;;
68655;SDS011;55638;51.122;13.606;2022-12-18T15:05:03;31.40;;;14.90;;
68655;SDS011;55638;51.122;13.606;2022-12-18T15:06:43;25.10;;;13.20;;
68655;SDS011;55638;51.122;13.606;2022-12-18T15:08:29;27.48;;;14.80;;
68655;SDS011;55638;51.122;13.606;2022-12-18T15:11:45;25.02;;;13.25;;
68655;SDS011;55638;51.122;13.606;2022-12-18T15:13:21;26.13;;;13.68;;
68655;SDS011;55638;51.122;13.606;2022-12-18T15:14:54;25.00;;;13.50;;
68655;SDS011;55638;51.122;13.606;2022-12-18T15:16:27;27.38;;;15.07;;
68655;SDS011;55638;51.122;13.606;2022-12-18T15:18:03;28.23;;;14.43;;
68655;SDS011;55638;51.122;13.606;2022-12-18T15:19:39;29.70;;;13.95;;
68655;SDS011;55638;51.122;13.606;2022-12-18T15:21:14;30.95;;;14.52;;
68655;SDS011;55638;51.122;13.606;2022-12-18T15:22:49;27.13;;;14.43;;
68655;SDS011;55638;51.122;13.606;2022-12-18T15:24:23;29.23;;;14.32;;
68655;SDS011;55638;51.122;13.606;2022-12-18T15:27:44;29.95;;;15.30;;
68655;SDS011;55638;51.122;13.606;2022-12-18T15:29:19;25.38;;;14.25;;
68655;SDS011;55638;51.122;13.606;2022-12-18T15:30:58;28.90;;;15.00;;
68655;SDS011;55638;51.122;13.606;2022-12-18T15:32:31;28.92;;;14.35;;
68655;SDS011;55638;51.122;13.606;2022-12-18T15:35:39;29.40;;;15.35;;
68655;SDS011;55638;51.122;13.606;2022-12-18T15:37:17;28.55;;;15.63;;
68655;SDS011;55638;51.122;13.606;2022-12-18T15:38:49;28.85;;;14.35;;
68655;SDS011;55638;51.122;13.606;2022-12-18T15:40:22;26.08;;;14.07;;
68655;SDS011;55638;51.122;13.606;2022-12-18T15:41:55;29.83;;;14.93;;
68655;SDS011;55638;51.122;13.606;2022-12-18T15:43:45;29.60;;;15.02;;
68655;SDS011;55638;51.122;13.606;2022-12-18T15:45:19;29.42;;;14.38;;
68655;SDS011;55638;51.122;13.606;2022-12-18T15:46:54;31.35;;;15.95;;
68655;SDS011;55638;51.122;13.606;2022-12-18T15:48:26;28.05;;;15.30;;
68655;SDS011;55638;51.122;13.606;2022-12-18T15:49:57;29.40;;;15.70;;
68655;SDS011;55638;51.122;13.606;2022-12-18T15:51:33;28.35;;;14.60;;
68655;SDS011;55638;51.122;13.606;2022-12-18T15:53:07;31.13;;;15.48;;
68655;SDS011;55638;51.122;13.606;2022-12-18T15:54:40;32.25;;;15.65;;
68655;SDS011;55638;51.122;13.606;2022-12-18T15:56:31;27.23;;;14.55;;
68655;SDS011;55638;51.122;13.606;2022-12-18T15:58:21;30.10;;;15.23;;
68655;SDS011;55638;51.122;13.606;2022-12-18T15:59:54;29.63;;;14.20;;
68655;SDS011;55638;51.122;13.606;2022-12-18T16:01:30;30.13;;;15.20;;
68655;SDS011;55638;51.122;13.606;2022-12-18T16:03:12;30.08;;;14.25;;
68655;SDS011;55638;51.122;13.606;2022-12-18T16:04:44;29.98;;;15.23;;
68655;SDS011;55638;51.122;13.606;2022-12-18T16:06:17;28.23;;;15.25;;
68655;SDS011;55638;51.122;13.606;2022-12-18T16:07:49;31.67;;;15.85;;
68655;SDS011;55638;51.122;13.606;2022-12-18T16:09:20;29.08;;;15.00;;
68655;SDS011;55638;51.122;13.606;2022-12-18T16:10:57;30.65;;;15.23;;
68655;SDS011;55638;51.122;13.606;2022-12-18T16:12:29;27.25;;;15.48;;
68655;SDS011;55638;51.122;13.606;2022-12-18T16:14:01;33.75;;;16.40;;
68655;SDS011;55638;51.122;13.606;2022-12-18T16:15:33;29.38;;;15.75;;
68655;SDS011;55638;51.122;13.606;2022-12-18T16:17:05;31.67;;;15.52;;
68655;SDS011;55638;51.122;13.606;2022-12-18T16:18:41;29.92;;;14.98;;
68655;SDS011;55638;51.122;13.606;2022-12-18T16:20:17;27.95;;;16.20;;
68655;SDS011;55638;51.122;13.606;2022-12-18T16:21:51;31.13;;;16.05;;
68655;SDS011;55638;51.122;13.606;2022-12-18T16:23:24;29.35;;;15.98;;
68655;SDS011;55638;51.122;13.606;2022-12-18T16:24:56;32.33;;;15.55;;
68655;SDS011;55638;51.122;13.606;2022-12-18T16:26:29;34.00;;;16.25;;
68655;SDS011;55638;51.122;13.606;2022-12-18T16:28:01;29.98;;;14.18;;
68655;SDS011;55638;51.122;13.606;2022-12-18T16:29:33;27.90;;;15.13;;
68655;SDS011;55638;51.122;13.606;2022-12-18T16:31:05;28.95;;;15.90;;
68655;SDS011;55638;51.122;13.606;2022-12-18T16:32:36;29.00;;;14.40;;
68655;SDS011;55638;51.122;13.606;2022-12-18T16:34:12;31.88;;;14.90;;
68655;SDS011;55638;51.122;13.606;2022-12-18T16:35:53;27.10;;;13.95;;
68655;SDS011;55638;51.122;13.606;2022-12-18T16:37:24;31.02;;;15.48;;
68655;SDS011;55638;51.122;13.606;2022-12-18T16:38:57;30.60;;;14.88;;
68655;SDS011;55638;51.122;13.606;2022-12-18T16:40:30;29.40;;;14.85;;
68655;SDS011;55638;51.122;13.606;2022-12-18T16:42:11;31.63;;;14.95;;
68655;SDS011;55638;51.122;13.606;2022-12-18T16:43:45;26.92;;;14.73;;
68655;SDS011;55638;51.122;13.606;2022-12-18T16:45:25;27.85;;;15.82;;
68655;SDS011;55638;51.122;13.606;2022-12-18T16:47:04;31.05;;;15.55;;
68655;SDS011;55638;51.122;13.606;2022-12-18T16:48:39;29.50;;;14.57;;
68655;SDS011;55638;51.122;13.606;2022-12-18T16:50:11;28.58;;;15.48;;
68655;SDS011;55638;51.122;13.606;2022-12-18T16:51:43;31.45;;;15.20;;
68655;SDS011;55638;51.122;13.606;2022-12-18T16:53:16;32.75;;;15.95;;
68655;SDS011;55638;51.122;13.606;2022-12-18T16:54:48;33.03;;;16.33;;
68655;SDS011;55638;51.122;13.606;2022-12-18T16:56:22;32.55;;;16.63;;
68655;SDS011;55638;51.122;13.606;2022-12-18T16:57:54;30.88;;;16.60;;
68655;SDS011;55638;51.122;13.606;2022-12-18T16:59:26;28.75;;;15.63;;
68655;SDS011;55638;51.122;13.606;2022-12-18T17:00:58;31.30;;;16.20;;
68655;SDS011;55638;51.122;13.606;2022-12-18T17:02:30;30.83;;;15.50;;
68655;SDS011;55638;51.122;13.606;2022-12-18T17:04:03;33.75;;;15.73;;
68655;SDS011;55638;51.122;13.606;2022-12-18T17:05:36;28.40;;;13.98;;
68655;SDS011;55638;51.122;13.606;2022-12-18T17:07:09;30.83;;;15.35;;
68655;SDS011;55638;51.122;13.606;2022-12-18T17:08:41;30.90;;;14.38;;
68655;SDS011;55638;51.122;13.606;2022-12-18T17:10:13;32.20;;;15.50;;
68655;SDS011;55638;51.122;13.606;2022-12-18T17:11:45;30.02;;;15.98;;
68655;SDS011;55638;51.122;13.606;2022-12-18T17:13:17;33.28;;;15.15;;
68655;SDS011;55638;51.122;13.606;2022-12-18T17:14:55;30.27;;;14.55;;
68655;SDS011;55638;51.122;13.606;2022-12-18T17:16:29;30.02;;;14.88;;
68655;SDS011;55638;51.122;13.606;2022-12-18T17:18:02;33.15;;;15.25;;
68655;SDS011;55638;51.122;13.606;2022-12-18T17:19:34;29.65;;;15.45;;
68655;SDS011;55638;51.122;13.606;2022-12-18T17:21:06;31.95;;;15.43;;
68655;SDS011;55638;51.122;13.606;2022-12-18T17:22:40;30.95;;;15.70;;
68655;SDS011;55638;51.122;13.606;2022-12-18T17:24:11;32.35;;;15.82;;
68655;SDS011;55638;51.122;13.606;2022-12-18T17:25:43;30.90;;;15.52;;
68655;SDS011;55638;51.122;13.606;2022-12-18T17:27:15;29.67;;;15.10;;
68655;SDS011;55638;51.122;13.606;2022-12-18T17:28:48;28.27;;;14.63;;
68655;SDS011;55638;51.122;13.606;2022-12-18T17:30:20;29.02;;;15.18;;
68655;SDS011;55638;51.122;13.606;2022-12-18T17:31:52;28.90;;;14.68;;
68655;SDS011;55638;51.122;13.606;2022-12-18T17:33:24;28.50;;;14.27;;
68655;SDS011;55638;51.122;13.606;2022-12-18T17:34:57;31.35;;;14.73;;
68655;SDS011;55638;51.122;13.606;2022-12-18T17:36:35;27.88;;;15.07;;
68655;SDS011;55638;51.122;13.606;2022-12-18T17:38:08;29.75;;;14.95;;
68655;SDS011;55638;51.122;13.606;2022-12-18T17:39:40;33.20;;;16.88;;
68655;SDS011;55638;51.122;13.606;2022-12-18T17:41:12;31.40;;;15.77;;
68655;SDS011;55638;51.122;13.606;2022-12-18T17:42:44;30.13;;;15.63;;
68655;SDS011;55638;51.122;13.606;2022-12-18T17:44:16;30.20;;;14.88;;
68655;SDS011;55638;51.122;13.606;2022-12-18T17:45:48;30.17;;;15.38;;
68655;SDS011;55638;51.122;13.606;2022-12-18T17:47:20;29.25;;;15.25;;
68655;SDS011;55638;51.122;13.606;2022-12-18T17:48:54;31.58;;;15.43;;
68655;SDS011;55638;51.122;13.606;2022-12-18T17:50:26;27.45;;;14.98;;
68655;SDS011;55638;51.122;13.606;2022-12-18T17:51:58;27.63;;;15.20;;
68655;SDS011;55638;51.122;13.606;2022-12-18T17:53:30;28.67;;;14.35;;
68655;SDS011;55638;51.122;13.606;2022-12-18T17:55:03;28.38;;;15.00;;
68655;SDS011;55638;51.122;13.606;2022-12-18T17:56:35;30.17;;;15.57;;
68655;SDS011;55638;51.122;13.606;2022-12-18T17:58:08;31.38;;;15.55;;
68655;SDS011;55638;51.122;13.606;2022-12-18T17:59:40;30.05;;;16.00;;
68655;SDS011;55638;51.122;13.606;2022-12-18T18:01:12;32.53;;;16.73;;
68655;SDS011;55638;51.122;13.606;2022-12-18T18:02:46;30.65;;;14.95;;
68655;SDS011;55638;51.122;13.606;2022-12-18T18:04:18;29.50;;;15.05;;
68655;SDS011;55638;51.122;13.606;2022-12-18T18:05:57;30.63;;;14.93;;
68655;SDS011;55638;51.122;13.606;2022-12-18T18:07:30;26.75;;;15.00;;
68655;SDS011;55638;51.122;13.606;2022-12-18T18:09:02;33.65;;;16.17;;
68655;SDS011;55638;51.122;13.606;2022-12-18T18:10:34;25.75;;;13.98;;
68655;SDS011;55638;51.122;13.606;2022-12-18T18:12:08;26.67;;;14.43;;
68655;SDS011;55638;51.122;13.606;2022-12-18T18:13:59;28.92;;;13.45;;
68655;SDS011;55638;51.122;13.606;2022-12-18T18:15:31;28.35;;;14.60;;
68655;SDS011;55638;51.122;13.606;2022-12-18T18:17:03;26.38;;;14.45;;
68655;SDS011;55638;51.122;13.606;2022-12-18T18:18:36;27.42;;;14.52;;
68655;SDS011;55638;51.122;13.606;2022-12-18T18:20:08;28.10;;;13.52;;
68655;SDS011;55638;51.122;13.606;2022-12-18T18:21:41;31.17;;;14.40;;
68655;SDS011;55638;51.122;13.606;2022-12-18T18:23:15;30.52;;;14.52;;
68655;SDS011;55638;51.122;13.606;2022-12-18T18:24:47;27.60;;;14.52;;
68655;SDS011;55638;51.122;13.606;2022-12-18T18:26:19;28.25;;;14.85;;
68655;SDS011;55638;51.122;13.606;2022-12-18T18:27:51;28.88;;;14.85;;
68655;SDS011;55638;51.122;13.606;2022-12-18T18:29:24;28.92;;;14.93;;
68655;SDS011;55638;51.122;13.606;2022-12-18T18:31:02;27.95;;;15.10;;
68655;SDS011;55638;51.122;13.606;2022-12-18T18:32:35;26.10;;;15.07;;
68655;SDS011;55638;51.122;13.606;2022-12-18T18:34:20;28.95;;;15.57;;
68655;SDS011;55638;51.122;13.606;2022-12-18T18:35:53;27.17;;;14.00;;
68655;SDS011;55638;51.122;13.606;2022-12-18T18:37:25;30.58;;;14.85;;
68655;SDS011;55638;51.122;13.606;2022-12-18T18:38:58;31.67;;;15.15;;
68655;SDS011;55638;51.122;13.606;2022-12-18T18:40:31;29.45;;;14.50;;
68655;SDS011;55638;51.122;13.606;2022-12-18T18:42:02;30.77;;;14.65;;
68655;SDS011;55638;51.122;13.606;2022-12-18T18:43:34;31.15;;;14.50;;
68655;SDS011;55638;51.122;13.606;2022-12-18T18:45:07;28.98;;;14.40;;
68655;SDS011;55638;51.122;13.606;2022-12-18T18:46:39;27.60;;;13.55;;
68655;SDS011;55638;51.122;13.606;2022-12-18T18:48:11;26.02;;;13.73;;
68655;SDS011;55638;51.122;13.606;2022-12-18T18:49:44;28.85;;;14.35;;
68655;SDS011;55638;51.122;13.606;2022-12-18T18:51:16;28.13;;;14.88;;
68655;SDS011;55638;51.122;13.606;2022-12-18T18:52:52;27.45;;;14.93;;
68655;SDS011;55638;51.122;13.606;2022-12-18T18:54:24;25.23;;;12.80;;
68655;SDS011;55638;51.122;13.606;2022-12-18T18:55:57;27.27;;;13.43;;
68655;SDS011;55638;51.122;13.606;2022-12-18T18:57:50;28.38;;;13.98;;
68655;SDS011;55638;51.122;13.606;2022-12-18T18:59:22;26.77;;;13.50;;
68655;SDS011;55638;51.122;13.606;2022-12-18T19:01:20;28.15;;;14.02;;
68655;SDS011;55638;51.122;13.606;2022-12-18T19:04:31;23.90;;;12.30;;
68655;SDS011;55638;51.122;13.606;2022-12-18T19:06:05;25.40;;;13.68;;
68655;SDS011;55638;51.122;13.606;2022-12-18T19:07:38;26.17;;;13.93;;
68655;SDS011;55638;51.122;13.606;2022-12-18T19:09:09;25.35;;;12.43;;
68655;SDS011;55638;51.122;13.606;2022-12-18T19:10:43;25.77;;;13.05;;
68655;SDS011;55638;51.122;13.606;2022-12-18T19:12:14;25.20;;;13.13;;
68655;SDS011;55638;51.122;13.606;2022-12-18T19:14:08;26.75;;;12.45;;
68655;SDS011;55638;51.122;13.606;2022-12-18T19:15:41;23.83;;;12.48;;
68655;SDS011;55638;51.122;13.606;2022-12-18T19:17:14;23.45;;;12.57;;
68655;SDS011;55638;51.122;13.606;2022-12-18T19:18:46;25.73;;;13.32;;
68655;SDS011;55638;51.122;13.606;2022-12-18T19:20:18;24.80;;;12.68;;
68655;SDS011;55638;51.122;13.606;2022-12-18T19:21:50;25.48;;;12.77;;
68655;SDS011;55638;51.122;13.606;2022-12-18T19:23:21;27.02;;;12.35;;
68655;SDS011;55638;51.122;13.606;2022-12-18T19:24:54;23.60;;;12.77;;
68655;SDS011;55638;51.122;13.606;2022-12-18T19:26:26;24.67;;;12.25;;
68655;SDS011;55638;51.122;13.606;2022-12-18T19:27:59;24.00;;;12.95;;
68655;SDS011;55638;51.122;13.606;2022-12-18T19:29:31;25.90;;;13.43;;
68655;SDS011;55638;51.122;13.606;2022-12-18T19:31:04;26.58;;;13.18;;
68655;SDS011;55638;51.122;13.606;2022-12-18T19:32:37;23.88;;;12.65;;
68655;SDS011;55638;51.122;13.606;2022-12-18T19:34:10;24.77;;;12.45;;
68655;SDS011;55638;51.122;13.606;2022-12-18T19:35:42;27.98;;;14.48;;
68655;SDS011;55638;51.122;13.606;2022-12-18T19:37:14;29.35;;;13.93;;
68655;SDS011;55638;51.122;13.606;2022-12-18T19:38:47;25.25;;;12.70;;
68655;SDS011;55638;51.122;13.606;2022-12-18T19:40:20;26.58;;;12.88;;
68655;SDS011;55638;51.122;13.606;2022-12-18T19:41:51;26.90;;;13.63;;
68655;SDS011;55638;51.122;13.606;2022-12-18T19:43:24;24.90;;;13.32;;
68655;SDS011;55638;51.122;13.606;2022-12-18T19:44:57;27.38;;;13.25;;
68655;SDS011;55638;51.122;13.606;2022-12-18T19:46:28;27.30;;;13.95;;
68655;SDS011;55638;51.122;13.606;2022-12-18T19:48:00;25.05;;;12.57;;
68655;SDS011;55638;51.122;13.606;2022-12-18T19:49:35;26.25;;;13.30;;
68655;SDS011;55638;51.122;13.606;2022-12-18T19:51:08;25.40;;;13.52;;
68655;SDS011;55638;51.122;13.606;2022-12-18T19:52:48;17.85;;;9.30;;
68655;SDS011;55638;51.122;13.606;2022-12-18T19:54:20;28.52;;;13.85;;
68655;SDS011;55638;51.122;13.606;2022-12-18T19:55:52;25.88;;;13.65;;
68655;SDS011;55638;51.122;13.606;2022-12-18T19:57:23;27.38;;;13.65;;
68655;SDS011;55638;51.122;13.606;2022-12-18T19:58:55;24.55;;;13.57;;
68655;SDS011;55638;51.122;13.606;2022-12-18T20:00:27;24.25;;;12.57;;
68655;SDS011;55638;51.122;13.606;2022-12-18T20:01:59;26.77;;;13.57;;
68655;SDS011;55638;51.122;13.606;2022-12-18T20:03:31;25.83;;;13.85;;
68655;SDS011;55638;51.122;13.606;2022-12-18T20:05:05;26.25;;;12.90;;
68655;SDS011;55638;51.122;13.606;2022-12-18T20:06:49;23.50;;;12.75;;
68655;SDS011;55638;51.122;13.606;2022-12-18T20:08:23;25.70;;;13.02;;
68655;SDS011;55638;51.122;13.606;2022-12-18T20:09:54;25.23;;;13.45;;
68655;SDS011;55638;51.122;13.606;2022-12-18T20:11:35;28.60;;;12.95;;
68655;SDS011;55638;51.122;13.606;2022-12-18T20:13:12;27.13;;;13.57;;
68655;SDS011;55638;51.122;13.606;2022-12-18T20:14:45;26.63;;;13.27;;
68655;SDS011;55638;51.122;13.606;2022-12-18T20:16:17;27.88;;;12.73;;
68655;SDS011;55638;51.122;13.606;2022-12-18T20:17:49;26.27;;;13.18;;
68655;SDS011;55638;51.122;13.606;2022-12-18T20:19:21;23.95;;;13.30;;
68655;SDS011;55638;51.122;13.606;2022-12-18T20:20:53;27.75;;;12.93;;
68655;SDS011;55638;51.122;13.606;2022-12-18T20:22:28;22.42;;;12.02;;
68655;SDS011;55638;51.122;13.606;2022-12-18T20:24:00;24.20;;;13.25;;
68655;SDS011;55638;51.122;13.606;2022-12-18T20:25:32;23.02;;;11.82;;
68655;SDS011;55638;51.122;13.606;2022-12-18T20:27:04;27.00;;;13.50;;
68655;SDS011;55638;51.122;13.606;2022-12-18T20:28:44;24.23;;;12.38;;
68655;SDS011;55638;51.122;13.606;2022-12-18T20:30:16;25.35;;;12.85;;
68655;SDS011;55638;51.122;13.606;2022-12-18T20:31:48;24.20;;;13.27;;
68655;SDS011;55638;51.122;13.606;2022-12-18T20:33:20;28.08;;;12.65;;
68655;SDS011;55638;51.122;13.606;2022-12-18T20:34:51;23.80;;;12.57;;
68655;SDS011;55638;51.122;13.606;2022-12-18T20:36:23;25.50;;;12.68;;
68655;SDS011;55638;51.122;13.606;2022-12-18T20:37:58;24.23;;;13.18;;
68655;SDS011;55638;51.122;13.606;2022-12-18T20:39:31;23.25;;;12.48;;
68655;SDS011;55638;51.122;13.606;2022-12-18T20:41:10;23.50;;;12.65;;
68655;SDS011;55638;51.122;13.606;2022-12-18T20:42:46;26.60;;;12.80;;
68655;SDS011;55638;51.122;13.606;2022-12-18T20:44:18;27.88;;;13.95;;